sensor_id;sensor_type;location;lat;lon;timestamp;temperature;humidity
78514;SHT31;67814;51.976;5.810;2023-09-30T00:02:08;15.1;73.1
78514;SHT31;67814;51.976;5.810;2023-09-30T00:04:38;15.1;73.2
78514;SHT31;67814;51.976;5.810;2023-09-30T00:07:07;15.1;72.8
78514;SHT31;67814;51.976;5.810;2023-09-30T00:09:36;15.1;72.8
78514;SHT31;67814;51.976;5.810;2023-09-30T00:12:06;15.1;73.2
78514;SHT31;67814;51.976;5.810;2023-09-30T00:14:35;15.1;73.0
78514;SHT31;67814;51.976;5.810;2023-09-30T00:17:04;15.1;73.0
78514;SHT31;67814;51.976;5.810;2023-09-30T00:19:34;15.1;73.1
78514;SHT31;67814;51.976;5.810;2023-09-30T00:22:03;15.1;73.0
78514;SHT31;67814;51.976;5.810;2023-09-30T00:24:31;15.1;72.6
78514;SHT31;67814;51.976;5.810;2023-09-30T00:27:00;15.1;72.6
78514;SHT31;67814;51.976;5.810;2023-09-30T00:29:29;15.1;72.2
78514;SHT31;67814;51.976;5.810;2023-09-30T00:31:57;15.1;72.5
78514;SHT31;67814;51.976;5.810;2023-09-30T00:34:26;15.1;72.7
78514;SHT31;67814;51.976;5.810;2023-09-30T00:36:54;15.1;72.6
78514;SHT31;67814;51.976;5.810;2023-09-30T00:39:23;15.1;72.8
78514;SHT31;67814;51.976;5.810;2023-09-30T00:41:53;15.1;73.2
78514;SHT31;67814;51.976;5.810;2023-09-30T00:44:22;15.1;73.2
78514;SHT31;67814;51.976;5.810;2023-09-30T00:46:50;15.1;73.0
78514;SHT31;67814;51.976;5.810;2023-09-30T00:49:20;15.1;72.5
78514;SHT31;67814;51.976;5.810;2023-09-30T00:51:49;15.1;72.2
78514;SHT31;67814;51.976;5.810;2023-09-30T00:54:18;15.1;72.5
78514;SHT31;67814;51.976;5.810;2023-09-30T00:56:50;15.1;73.1
78514;SHT31;67814;51.976;5.810;2023-09-30T00:59:19;15.1;73.1
78514;SHT31;67814;51.976;5.810;2023-09-30T01:01:48;15.1;73.5
78514;SHT31;67814;51.976;5.810;2023-09-30T01:04:17;15.1;73.3
78514;SHT31;67814;51.976;5.810;2023-09-30T01:06:47;15.1;73.7
78514;SHT31;67814;51.976;5.810;2023-09-30T01:09:18;15.1;73.7
78514;SHT31;67814;51.976;5.810;2023-09-30T01:11:48;15.1;73.4
78514;SHT31;67814;51.976;5.810;2023-09-30T01:14:26;15.1;73.2
78514;SHT31;67814;51.976;5.810;2023-09-30T01:16:55;15.1;73.3
78514;SHT31;67814;51.976;5.810;2023-09-30T01:19:25;15.0;73.6
78514;SHT31;67814;51.976;5.810;2023-09-30T01:21:55;15.0;73.2
78514;SHT31;67814;51.976;5.810;2023-09-30T01:24:26;15.0;72.6
78514;SHT31;67814;51.976;5.810;2023-09-30T01:26:55;15.0;72.4
78514;SHT31;67814;51.976;5.810;2023-09-30T01:29:24;15.0;72.2
78514;SHT31;67814;51.976;5.810;2023-09-30T01:31:54;15.0;72.2
78514;SHT31;67814;51.976;5.810;2023-09-30T01:34:23;15.0;72.3
78514;SHT31;67814;51.976;5.810;2023-09-30T01:36:51;14.9;71.8
78514;SHT31;67814;51.976;5.810;2023-09-30T01:39:22;14.9;72.0
78514;SHT31;67814;51.976;5.810;2023-09-30T01:41:50;14.9;71.5
78514;SHT31;67814;51.976;5.810;2023-09-30T01:44:20;14.9;71.8
78514;SHT31;67814;51.976;5.810;2023-09-30T01:46:48;14.8;71.6
78514;SHT31;67814;51.976;5.810;2023-09-30T01:49:17;14.8;72.1
78514;SHT31;67814;51.976;5.810;2023-09-30T01:51:46;14.8;72.2
78514;SHT31;67814;51.976;5.810;2023-09-30T01:54:14;14.7;71.9
78514;SHT31;67814;51.976;5.810;2023-09-30T01:56:43;14.7;71.9
78514;SHT31;67814;51.976;5.810;2023-09-30T01:59:11;14.7;71.9
78514;SHT31;67814;51.976;5.810;2023-09-30T02:01:40;14.7;71.9
78514;SHT31;67814;51.976;5.810;2023-09-30T02:04:08;14.6;71.9
78514;SHT31;67814;51.976;5.810;2023-09-30T02:06:37;14.6;72.3
78514;SHT31;67814;51.976;5.810;2023-09-30T02:09:06;14.6;72.6
78514;SHT31;67814;51.976;5.810;2023-09-30T02:11:36;14.6;72.4
78514;SHT31;67814;51.976;5.810;2023-09-30T02:14:07;14.6;72.8
78514;SHT31;67814;51.976;5.810;2023-09-30T02:16:37;14.6;72.7
78514;SHT31;67814;51.976;5.810;2023-09-30T02:19:08;14.5;73.0
78514;SHT31;67814;51.976;5.810;2023-09-30T02:21:37;14.5;72.9
78514;SHT31;67814;51.976;5.810;2023-09-30T02:24:06;14.5;72.9
78514;SHT31;67814;51.976;5.810;2023-09-30T02:26:34;14.5;73.0
78514;SHT31;67814;51.976;5.810;2023-09-30T02:29:05;14.5;73.3
78514;SHT31;67814;51.976;5.810;2023-09-30T02:31:34;14.5;73.6
78514;SHT31;67814;51.976;5.810;2023-09-30T02:34:03;14.5;73.8
78514;SHT31;67814;51.976;5.810;2023-09-30T02:36:32;14.5;74.8
78514;SHT31;67814;51.976;5.810;2023-09-30T02:39:02;14.5;75.4
78514;SHT31;67814;51.976;5.810;2023-09-30T02:41:31;14.5;75.9
78514;SHT31;67814;51.976;5.810;2023-09-30T02:43:59;14.6;76.3
78514;SHT31;67814;51.976;5.810;2023-09-30T02:46:28;14.6;76.2
78514;SHT31;67814;51.976;5.810;2023-09-30T02:49:00;14.6;76.1
78514;SHT31;67814;51.976;5.810;2023-09-30T02:51:28;14.7;76.1
78514;SHT31;67814;51.976;5.810;2023-09-30T02:53:58;14.7;76.5
78514;SHT31;67814;51.976;5.810;2023-09-30T02:56:26;14.8;76.5
78514;SHT31;67814;51.976;5.810;2023-09-30T02:58:56;14.8;76.2
78514;SHT31;67814;51.976;5.810;2023-09-30T03:01:27;14.9;76.1
78514;SHT31;67814;51.976;5.810;2023-09-30T03:03:56;14.9;75.9
78514;SHT31;67814;51.976;5.810;2023-09-30T03:06:25;15.0;75.9
78514;SHT31;67814;51.976;5.810;2023-09-30T03:08:55;15.0;75.6
78514;SHT31;67814;51.976;5.810;2023-09-30T03:11:23;15.0;75.4
78514;SHT31;67814;51.976;5.810;2023-09-30T03:13:52;15.1;75.2
78514;SHT31;67814;51.976;5.810;2023-09-30T03:16:21;15.1;75.1
78514;SHT31;67814;51.976;5.810;2023-09-30T03:18:51;15.1;74.7
78514;SHT31;67814;51.976;5.810;2023-09-30T03:21:22;15.2;74.5
78514;SHT31;67814;51.976;5.810;2023-09-30T03:23:50;15.2;74.3
78514;SHT31;67814;51.976;5.810;2023-09-30T03:26:19;15.2;74.1
78514;SHT31;67814;51.976;5.810;2023-09-30T03:28:47;15.2;74.2
78514;SHT31;67814;51.976;5.810;2023-09-30T03:31:21;15.2;74.1
78514;SHT31;67814;51.976;5.810;2023-09-30T03:33:50;15.2;74.1
78514;SHT31;67814;51.976;5.810;2023-09-30T03:36:20;15.2;73.9
78514;SHT31;67814;51.976;5.810;2023-09-30T03:38:50;15.2;73.8
78514;SHT31;67814;51.976;5.810;2023-09-30T03:41:21;15.2;73.7
78514;SHT31;67814;51.976;5.810;2023-09-30T03:43:49;15.3;73.6
78514;SHT31;67814;51.976;5.810;2023-09-30T03:46:18;15.3;73.8
78514;SHT31;67814;51.976;5.810;2023-09-30T03:48:47;15.2;73.8
78514;SHT31;67814;51.976;5.810;2023-09-30T03:51:15;15.2;73.9
78514;SHT31;67814;51.976;5.810;2023-09-30T03:53:44;15.2;73.9
78514;SHT31;67814;51.976;5.810;2023-09-30T03:56:13;15.2;74.1
78514;SHT31;67814;51.976;5.810;2023-09-30T03:58:43;15.2;74.4
78514;SHT31;67814;51.976;5.810;2023-09-30T04:01:11;15.2;74.3
78514;SHT31;67814;51.976;5.810;2023-09-30T04:03:43;15.2;74.3
78514;SHT31;67814;51.976;5.810;2023-09-30T04:06:11;15.2;74.3
78514;SHT31;67814;51.976;5.810;2023-09-30T04:08:40;15.2;74.4
78514;SHT31;67814;51.976;5.810;2023-09-30T04:11:10;15.2;74.5
78514;SHT31;67814;51.976;5.810;2023-09-30T04:13:43;15.2;74.3
78514;SHT31;67814;51.976;5.810;2023-09-30T04:16:12;15.2;74.6
78514;SHT31;67814;51.976;5.810;2023-09-30T04:18:41;15.2;74.3
78514;SHT31;67814;51.976;5.810;2023-09-30T04:21:09;15.3;74.2
78514;SHT31;67814;51.976;5.810;2023-09-30T04:23:37;15.3;74.3
78514;SHT31;67814;51.976;5.810;2023-09-30T04:26:08;15.3;74.2
78514;SHT31;67814;51.976;5.810;2023-09-30T04:28:36;15.3;74.1
78514;SHT31;67814;51.976;5.810;2023-09-30T04:31:05;15.3;74.1
78514;SHT31;67814;51.976;5.810;2023-09-30T04:33:34;15.3;74.0
78514;SHT31;67814;51.976;5.810;2023-09-30T04:36:03;15.3;74.1
78514;SHT31;67814;51.976;5.810;2023-09-30T04:38:34;15.3;73.8
78514;SHT31;67814;51.976;5.810;2023-09-30T04:41:04;15.3;73.8
78514;SHT31;67814;51.976;5.810;2023-09-30T04:43:33;15.3;73.8
78514;SHT31;67814;51.976;5.810;2023-09-30T04:46:04;15.3;74.0
78514;SHT31;67814;51.976;5.810;2023-09-30T04:48:35;15.3;74.2
78514;SHT31;67814;51.976;5.810;2023-09-30T04:51:08;15.3;74.2
78514;SHT31;67814;51.976;5.810;2023-09-30T04:53:37;15.3;74.3
78514;SHT31;67814;51.976;5.810;2023-09-30T04:56:07;15.3;74.2
78514;SHT31;67814;51.976;5.810;2023-09-30T04:58:36;15.3;74.1
78514;SHT31;67814;51.976;5.810;2023-09-30T05:01:04;15.3;74.2
78514;SHT31;67814;51.976;5.810;2023-09-30T05:03:35;15.3;74.0
78514;SHT31;67814;51.976;5.810;2023-09-30T05:06:04;15.3;74.0
78514;SHT31;67814;51.976;5.810;2023-09-30T05:08:34;15.3;74.2
78514;SHT31;67814;51.976;5.810;2023-09-30T05:11:02;15.3;74.1
78514;SHT31;67814;51.976;5.810;2023-09-30T05:13:31;15.3;74.2
78514;SHT31;67814;51.976;5.810;2023-09-30T05:16:00;15.3;74.2
78514;SHT31;67814;51.976;5.810;2023-09-30T05:18:29;15.3;74.4
78514;SHT31;67814;51.976;5.810;2023-09-30T05:20:58;15.3;74.3
78514;SHT31;67814;51.976;5.810;2023-09-30T05:23:26;15.3;74.3
78514;SHT31;67814;51.976;5.810;2023-09-30T05:25:55;15.3;74.6
78514;SHT31;67814;51.976;5.810;2023-09-30T05:28:23;15.3;74.6
78514;SHT31;67814;51.976;5.810;2023-09-30T05:30:52;15.3;74.7
78514;SHT31;67814;51.976;5.810;2023-09-30T05:33:21;15.3;74.5
78514;SHT31;67814;51.976;5.810;2023-09-30T05:35:50;15.3;74.5
78514;SHT31;67814;51.976;5.810;2023-09-30T05:38:18;15.3;74.4
78514;SHT31;67814;51.976;5.810;2023-09-30T05:40:49;15.3;74.6
78514;SHT31;67814;51.976;5.810;2023-09-30T05:43:19;15.3;74.7
78514;SHT31;67814;51.976;5.810;2023-09-30T05:45:48;15.3;74.7
78514;SHT31;67814;51.976;5.810;2023-09-30T05:48:21;15.3;74.6
78514;SHT31;67814;51.976;5.810;2023-09-30T05:50:51;15.2;74.6
78514;SHT31;67814;51.976;5.810;2023-09-30T05:53:20;15.2;74.8
78514;SHT31;67814;51.976;5.810;2023-09-30T05:55:49;15.2;74.8
78514;SHT31;67814;51.976;5.810;2023-09-30T05:58:18;15.2;74.7
78514;SHT31;67814;51.976;5.810;2023-09-30T06:00:47;15.2;74.9
78514;SHT31;67814;51.976;5.810;2023-09-30T06:03:17;15.2;75.1
78514;SHT31;67814;51.976;5.810;2023-09-30T06:05:47;15.2;74.9
78514;SHT31;67814;51.976;5.810;2023-09-30T06:08:16;15.2;74.9
78514;SHT31;67814;51.976;5.810;2023-09-30T06:10:45;15.2;75.2
78514;SHT31;67814;51.976;5.810;2023-09-30T06:13:16;15.2;75.2
78514;SHT31;67814;51.976;5.810;2023-09-30T06:15:44;15.2;75.3
78514;SHT31;67814;51.976;5.810;2023-09-30T06:18:13;15.2;75.4
78514;SHT31;67814;51.976;5.810;2023-09-30T06:20:41;15.2;75.4
78514;SHT31;67814;51.976;5.810;2023-09-30T06:23:10;15.2;75.5
78514;SHT31;67814;51.976;5.810;2023-09-30T06:25:38;15.2;75.6
78514;SHT31;67814;51.976;5.810;2023-09-30T06:28:10;15.3;75.9
78514;SHT31;67814;51.976;5.810;2023-09-30T06:30:40;15.3;76.2
78514;SHT31;67814;51.976;5.810;2023-09-30T06:33:11;15.3;76.2
78514;SHT31;67814;51.976;5.810;2023-09-30T06:35:42;15.4;77.0
78514;SHT31;67814;51.976;5.810;2023-09-30T06:38:16;15.5;75.6
78514;SHT31;67814;51.976;5.810;2023-09-30T06:40:46;15.6;74.8
78514;SHT31;67814;51.976;5.810;2023-09-30T06:43:15;15.7;74.8
78514;SHT31;67814;51.976;5.810;2023-09-30T06:45:44;15.8;74.3
78514;SHT31;67814;51.976;5.810;2023-09-30T06:48:13;15.9;74.3
78514;SHT31;67814;51.976;5.810;2023-09-30T06:50:43;15.9;73.9
78514;SHT31;67814;51.976;5.810;2023-09-30T06:53:14;16.0;73.9
78514;SHT31;67814;51.976;5.810;2023-09-30T06:55:44;16.0;74.0
78514;SHT31;67814;51.976;5.810;2023-09-30T06:58:13;16.0;73.8
78514;SHT31;67814;51.976;5.810;2023-09-30T07:00:47;16.1;73.8
78514;SHT31;67814;51.976;5.810;2023-09-30T07:03:17;16.1;74.1
78514;SHT31;67814;51.976;5.810;2023-09-30T07:05:47;16.1;73.8
78514;SHT31;67814;51.976;5.810;2023-09-30T07:08:18;16.2;73.6
78514;SHT31;67814;51.976;5.810;2023-09-30T07:10:47;16.2;74.1
78514;SHT31;67814;51.976;5.810;2023-09-30T07:13:18;16.2;73.3
78514;SHT31;67814;51.976;5.810;2023-09-30T07:15:47;16.2;73.8
78514;SHT31;67814;51.976;5.810;2023-09-30T07:18:16;16.3;73.9
78514;SHT31;67814;51.976;5.810;2023-09-30T07:20:45;16.3;73.3
78514;SHT31;67814;51.976;5.810;2023-09-30T07:23:15;16.3;73.4
78514;SHT31;67814;51.976;5.810;2023-09-30T07:25:44;16.3;73.1
78514;SHT31;67814;51.976;5.810;2023-09-30T07:28:13;16.3;72.7
78514;SHT31;67814;51.976;5.810;2023-09-30T07:30:43;16.4;73.1
78514;SHT31;67814;51.976;5.810;2023-09-30T07:33:12;16.4;73.2
78514;SHT31;67814;51.976;5.810;2023-09-30T07:35:42;16.4;73.7
78514;SHT31;67814;51.976;5.810;2023-09-30T07:38:11;16.4;73.5
78514;SHT31;67814;51.976;5.810;2023-09-30T07:40:39;16.4;73.8
78514;SHT31;67814;51.976;5.810;2023-09-30T07:43:10;16.4;73.8
78514;SHT31;67814;51.976;5.810;2023-09-30T07:45:39;16.5;73.6
78514;SHT31;67814;51.976;5.810;2023-09-30T07:48:10;16.5;73.8
78514;SHT31;67814;51.976;5.810;2023-09-30T07:50:38;16.5;73.7
78514;SHT31;67814;51.976;5.810;2023-09-30T07:53:08;16.5;74.3
78514;SHT31;67814;51.976;5.810;2023-09-30T07:55:38;16.6;74.2
78514;SHT31;67814;51.976;5.810;2023-09-30T07:58:07;16.6;74.6
78514;SHT31;67814;51.976;5.810;2023-09-30T08:00:36;16.6;74.3
78514;SHT31;67814;51.976;5.810;2023-09-30T08:03:05;16.7;74.6
78514;SHT31;67814;51.976;5.810;2023-09-30T08:05:34;16.7;74.7
78514;SHT31;67814;51.976;5.810;2023-09-30T08:08:04;16.8;74.5
78514;SHT31;67814;51.976;5.810;2023-09-30T08:10:32;16.8;74.2
78514;SHT31;67814;51.976;5.810;2023-09-30T08:13:03;16.9;74.6
78514;SHT31;67814;51.976;5.810;2023-09-30T08:15:31;17.0;74.0
78514;SHT31;67814;51.976;5.810;2023-09-30T08:18:00;17.0;73.7
78514;SHT31;67814;51.976;5.810;2023-09-30T08:20:29;17.1;74.0
78514;SHT31;67814;51.976;5.810;2023-09-30T08:22:58;17.1;73.9
78514;SHT31;67814;51.976;5.810;2023-09-30T08:25:26;17.2;73.5
78514;SHT31;67814;51.976;5.810;2023-09-30T08:27:55;17.2;73.3
78514;SHT31;67814;51.976;5.810;2023-09-30T08:30:24;17.3;73.2
78514;SHT31;67814;51.976;5.810;2023-09-30T08:32:52;17.3;73.4
78514;SHT31;67814;51.976;5.810;2023-09-30T08:35:23;17.4;72.9
78514;SHT31;67814;51.976;5.810;2023-09-30T08:37:51;17.4;73.3
78514;SHT31;67814;51.976;5.810;2023-09-30T08:40:22;17.5;73.4
78514;SHT31;67814;51.976;5.810;2023-09-30T08:42:52;17.5;73.0
78514;SHT31;67814;51.976;5.810;2023-09-30T08:45:21;17.6;73.1
78514;SHT31;67814;51.976;5.810;2023-09-30T08:47:50;17.6;73.2
78514;SHT31;67814;51.976;5.810;2023-09-30T08:50:20;17.7;72.7
78514;SHT31;67814;51.976;5.810;2023-09-30T08:52:50;17.8;72.7
78514;SHT31;67814;51.976;5.810;2023-09-30T08:55:20;17.8;72.7
78514;SHT31;67814;51.976;5.810;2023-09-30T08:57:52;17.9;72.7
78514;SHT31;67814;51.976;5.810;2023-09-30T09:00:20;17.9;72.6
78514;SHT31;67814;51.976;5.810;2023-09-30T09:02:51;18.0;72.3
78514;SHT31;67814;51.976;5.810;2023-09-30T09:05:20;18.1;71.9
78514;SHT31;67814;51.976;5.810;2023-09-30T09:07:50;18.1;72.1
78514;SHT31;67814;51.976;5.810;2023-09-30T09:10:19;18.1;72.3
78514;SHT31;67814;51.976;5.810;2023-09-30T09:12:56;18.2;71.8
78514;SHT31;67814;51.976;5.810;2023-09-30T09:15:27;18.3;71.9
78514;SHT31;67814;51.976;5.810;2023-09-30T09:17:58;18.3;71.4
78514;SHT31;67814;51.976;5.810;2023-09-30T09:20:27;18.4;71.2
78514;SHT31;67814;51.976;5.810;2023-09-30T09:22:56;18.4;71.2
78514;SHT31;67814;51.976;5.810;2023-09-30T09:25:26;18.5;71.0
78514;SHT31;67814;51.976;5.810;2023-09-30T09:27:55;18.5;70.7
78514;SHT31;67814;51.976;5.810;2023-09-30T09:30:25;18.6;70.4
78514;SHT31;67814;51.976;5.810;2023-09-30T09:33:02;18.6;70.6
78514;SHT31;67814;51.976;5.810;2023-09-30T09:35:32;18.7;70.6
78514;SHT31;67814;51.976;5.810;2023-09-30T09:38:03;18.7;70.3
78514;SHT31;67814;51.976;5.810;2023-09-30T09:40:33;18.7;70.2
78514;SHT31;67814;51.976;5.810;2023-09-30T09:43:03;18.8;70.1
78514;SHT31;67814;51.976;5.810;2023-09-30T09:45:34;18.8;70.3
78514;SHT31;67814;51.976;5.810;2023-09-30T09:48:05;18.8;70.1
78514;SHT31;67814;51.976;5.810;2023-09-30T09:50:35;18.9;69.9
78514;SHT31;67814;51.976;5.810;2023-09-30T09:53:05;18.9;69.7
78514;SHT31;67814;51.976;5.810;2023-09-30T09:55:33;19.0;70.3
78514;SHT31;67814;51.976;5.810;2023-09-30T09:58:08;19.1;69.5
78514;SHT31;67814;51.976;5.810;2023-09-30T10:00:38;19.1;69.6
78514;SHT31;67814;51.976;5.810;2023-09-30T10:03:11;19.2;69.5
78514;SHT31;67814;51.976;5.810;2023-09-30T10:05:40;19.3;69.0
78514;SHT31;67814;51.976;5.810;2023-09-30T10:08:14;19.3;68.7
78514;SHT31;67814;51.976;5.810;2023-09-30T10:10:45;19.4;69.1
78514;SHT31;67814;51.976;5.810;2023-09-30T10:13:50;19.4;68.3
78514;SHT31;67814;51.976;5.810;2023-09-30T10:16:50;19.4;68.6
78514;SHT31;67814;51.976;5.810;2023-09-30T10:19:21;19.5;67.2
78514;SHT31;67814;51.976;5.810;2023-09-30T10:22:22;19.5;67.3
78514;SHT31;67814;51.976;5.810;2023-09-30T10:24:53;19.6;67.0
78514;SHT31;67814;51.976;5.810;2023-09-30T10:27:35;19.7;66.7
78514;SHT31;67814;51.976;5.810;2023-09-30T10:30:10;19.7;66.1
78514;SHT31;67814;51.976;5.810;2023-09-30T10:33:11;19.8;66.0
78514;SHT31;67814;51.976;5.810;2023-09-30T10:35:50;19.8;65.2
78514;SHT31;67814;51.976;5.810;2023-09-30T10:38:39;19.9;65.8
78514;SHT31;67814;51.976;5.810;2023-09-30T10:44:33;20.0;65.0
78514;SHT31;67814;51.976;5.810;2023-09-30T10:49:54;20.2;64.0
78514;SHT31;67814;51.976;5.810;2023-09-30T10:52:23;20.2;65.1
78514;SHT31;67814;51.976;5.810;2023-09-30T10:54:53;20.3;62.2
78514;SHT31;67814;51.976;5.810;2023-09-30T10:57:28;20.4;61.3
78514;SHT31;67814;51.976;5.810;2023-09-30T11:00:11;20.4;62.0
78514;SHT31;67814;51.976;5.810;2023-09-30T11:02:52;20.5;61.9
78514;SHT31;67814;51.976;5.810;2023-09-30T11:05:21;20.5;61.3
78514;SHT31;67814;51.976;5.810;2023-09-30T11:07:54;20.5;60.7
78514;SHT31;67814;51.976;5.810;2023-09-30T11:10:23;20.6;60.3
78514;SHT31;67814;51.976;5.810;2023-09-30T11:12:56;20.6;60.8
78514;SHT31;67814;51.976;5.810;2023-09-30T11:15:26;20.6;59.0
78514;SHT31;67814;51.976;5.810;2023-09-30T11:18:14;20.6;59.9
78514;SHT31;67814;51.976;5.810;2023-09-30T11:20:44;20.7;60.8
78514;SHT31;67814;51.976;5.810;2023-09-30T11:23:12;20.7;60.9
78514;SHT31;67814;51.976;5.810;2023-09-30T11:25:42;20.7;58.0
78514;SHT31;67814;51.976;5.810;2023-09-30T11:28:17;20.7;59.0
78514;SHT31;67814;51.976;5.810;2023-09-30T11:30:58;20.7;59.2
78514;SHT31;67814;51.976;5.810;2023-09-30T11:33:29;20.7;59.4
78514;SHT31;67814;51.976;5.810;2023-09-30T11:36:02;20.7;58.8
78514;SHT31;67814;51.976;5.810;2023-09-30T11:38:34;20.8;56.8
78514;SHT31;67814;51.976;5.810;2023-09-30T11:41:04;20.8;57.7
78514;SHT31;67814;51.976;5.810;2023-09-30T11:43:34;20.9;57.1
78514;SHT31;67814;51.976;5.810;2023-09-30T11:46:06;20.9;56.1
78514;SHT31;67814;51.976;5.810;2023-09-30T11:48:37;21.0;55.0
78514;SHT31;67814;51.976;5.810;2023-09-30T11:51:09;21.0;56.5
78514;SHT31;67814;51.976;5.810;2023-09-30T11:53:38;21.0;55.7
78514;SHT31;67814;51.976;5.810;2023-09-30T11:56:08;21.1;56.2
78514;SHT31;67814;51.976;5.810;2023-09-30T11:58:37;21.1;54.0
78514;SHT31;67814;51.976;5.810;2023-09-30T12:01:05;21.2;53.9
78514;SHT31;67814;51.976;5.810;2023-09-30T12:03:38;21.3;53.8
78514;SHT31;67814;51.976;5.810;2023-09-30T12:06:06;21.3;53.1
78514;SHT31;67814;51.976;5.810;2023-09-30T12:08:35;21.4;52.4
78514;SHT31;67814;51.976;5.810;2023-09-30T12:11:04;21.5;52.0
78514;SHT31;67814;51.976;5.810;2023-09-30T12:13:32;21.6;50.1
78514;SHT31;67814;51.976;5.810;2023-09-30T12:16:01;21.6;50.3
78514;SHT31;67814;51.976;5.810;2023-09-30T12:18:31;21.7;51.2
78514;SHT31;67814;51.976;5.810;2023-09-30T12:21:00;21.7;50.6
78514;SHT31;67814;51.976;5.810;2023-09-30T12:23:31;21.7;50.2
78514;SHT31;67814;51.976;5.810;2023-09-30T12:25:59;21.8;51.2
78514;SHT31;67814;51.976;5.810;2023-09-30T12:28:31;21.8;52.0
78514;SHT31;67814;51.976;5.810;2023-09-30T12:31:00;21.8;51.5
78514;SHT31;67814;51.976;5.810;2023-09-30T12:33:31;21.8;51.8
78514;SHT31;67814;51.976;5.810;2023-09-30T12:36:00;21.8;50.7
78514;SHT31;67814;51.976;5.810;2023-09-30T12:38:28;21.8;51.6
78514;SHT31;67814;51.976;5.810;2023-09-30T12:40:57;21.8;52.5
78514;SHT31;67814;51.976;5.810;2023-09-30T12:43:28;21.7;52.5
78514;SHT31;67814;51.976;5.810;2023-09-30T12:45:57;21.7;51.6
78514;SHT31;67814;51.976;5.810;2023-09-30T12:48:26;21.7;52.4
78514;SHT31;67814;51.976;5.810;2023-09-30T12:50:54;21.7;52.5
78514;SHT31;67814;51.976;5.810;2023-09-30T12:53:22;21.7;51.3
78514;SHT31;67814;51.976;5.810;2023-09-30T12:55:51;21.6;52.5
78514;SHT31;67814;51.976;5.810;2023-09-30T12:58:21;21.6;52.4
78514;SHT31;67814;51.976;5.810;2023-09-30T13:00:50;21.6;53.0
78514;SHT31;67814;51.976;5.810;2023-09-30T13:03:18;21.6;52.4
78514;SHT31;67814;51.976;5.810;2023-09-30T13:05:46;21.5;53.3
78514;SHT31;67814;51.976;5.810;2023-09-30T13:08:15;21.5;52.9
78514;SHT31;67814;51.976;5.810;2023-09-30T13:10:43;21.5;52.0
78514;SHT31;67814;51.976;5.810;2023-09-30T13:13:13;21.5;52.6
78514;SHT31;67814;51.976;5.810;2023-09-30T13:15:42;21.5;52.3
78514;SHT31;67814;51.976;5.810;2023-09-30T13:18:10;21.5;52.3
78514;SHT31;67814;51.976;5.810;2023-09-30T13:20:39;21.5;52.7
78514;SHT31;67814;51.976;5.810;2023-09-30T13:23:07;21.4;53.0
78514;SHT31;67814;51.976;5.810;2023-09-30T13:25:38;21.4;54.0
78514;SHT31;67814;51.976;5.810;2023-09-30T13:28:08;21.4;52.8
78514;SHT31;67814;51.976;5.810;2023-09-30T13:30:37;21.4;53.8
78514;SHT31;67814;51.976;5.810;2023-09-30T13:33:06;21.4;53.3
78514;SHT31;67814;51.976;5.810;2023-09-30T13:35:36;21.4;53.6
78514;SHT31;67814;51.976;5.810;2023-09-30T13:38:05;21.4;53.8
78514;SHT31;67814;51.976;5.810;2023-09-30T13:40:34;21.4;54.2
78514;SHT31;67814;51.976;5.810;2023-09-30T13:43:03;21.4;53.9
78514;SHT31;67814;51.976;5.810;2023-09-30T13:45:32;21.4;53.4
78514;SHT31;67814;51.976;5.810;2023-09-30T13:48:01;21.4;52.8
78514;SHT31;67814;51.976;5.810;2023-09-30T13:50:29;21.4;53.8
78514;SHT31;67814;51.976;5.810;2023-09-30T13:52:58;21.4;52.7
78514;SHT31;67814;51.976;5.810;2023-09-30T13:55:29;21.4;53.8
78514;SHT31;67814;51.976;5.810;2023-09-30T13:57:57;21.4;53.7
78514;SHT31;67814;51.976;5.810;2023-09-30T14:00:26;21.4;53.5
78514;SHT31;67814;51.976;5.810;2023-09-30T14:02:56;21.4;53.1
78514;SHT31;67814;51.976;5.810;2023-09-30T14:05:25;21.4;53.7
78514;SHT31;67814;51.976;5.810;2023-09-30T14:07:53;21.4;52.7
78514;SHT31;67814;51.976;5.810;2023-09-30T14:10:22;21.4;52.8
78514;SHT31;67814;51.976;5.810;2023-09-30T14:12:51;21.4;52.6
78514;SHT31;67814;51.976;5.810;2023-09-30T14:15:20;21.4;53.1
78514;SHT31;67814;51.976;5.810;2023-09-30T14:17:49;21.4;53.7
78514;SHT31;67814;51.976;5.810;2023-09-30T14:20:17;21.4;53.3
78514;SHT31;67814;51.976;5.810;2023-09-30T14:22:45;21.4;53.6
78514;SHT31;67814;51.976;5.810;2023-09-30T14:25:15;21.4;53.6
78514;SHT31;67814;51.976;5.810;2023-09-30T14:27:43;21.4;53.5
78514;SHT31;67814;51.976;5.810;2023-09-30T14:30:13;21.4;53.4
78514;SHT31;67814;51.976;5.810;2023-09-30T14:32:42;21.4;53.1
78514;SHT31;67814;51.976;5.810;2023-09-30T14:35:10;21.4;52.5
78514;SHT31;67814;51.976;5.810;2023-09-30T14:37:40;21.4;52.2
78514;SHT31;67814;51.976;5.810;2023-09-30T14:40:09;21.4;51.7
78514;SHT31;67814;51.976;5.810;2023-09-30T14:42:39;21.4;52.2
78514;SHT31;67814;51.976;5.810;2023-09-30T14:45:09;21.5;52.0
78514;SHT31;67814;51.976;5.810;2023-09-30T14:47:39;21.5;51.6
78514;SHT31;67814;51.976;5.810;2023-09-30T14:50:09;21.5;53.0
78514;SHT31;67814;51.976;5.810;2023-09-30T14:52:38;21.5;52.7
78514;SHT31;67814;51.976;5.810;2023-09-30T14:55:07;21.5;53.6
78514;SHT31;67814;51.976;5.810;2023-09-30T14:57:36;21.5;52.5
78514;SHT31;67814;51.976;5.810;2023-09-30T15:00:05;21.5;53.0
78514;SHT31;67814;51.976;5.810;2023-09-30T15:02:34;21.5;53.3
78514;SHT31;67814;51.976;5.810;2023-09-30T15:05:05;21.5;55.6
78514;SHT31;67814;51.976;5.810;2023-09-30T15:07:35;21.6;52.9
78514;SHT31;67814;51.976;5.810;2023-09-30T15:10:04;21.5;53.3
78514;SHT31;67814;51.976;5.810;2023-09-30T15:12:33;21.6;53.8
78514;SHT31;67814;51.976;5.810;2023-09-30T15:15:02;21.6;53.6
78514;SHT31;67814;51.976;5.810;2023-09-30T15:17:31;21.6;53.5
78514;SHT31;67814;51.976;5.810;2023-09-30T15:20:00;21.6;53.9
78514;SHT31;67814;51.976;5.810;2023-09-30T15:22:33;21.6;53.8
78514;SHT31;67814;51.976;5.810;2023-09-30T15:25:02;21.6;54.4
78514;SHT31;67814;51.976;5.810;2023-09-30T15:27:31;21.6;53.8
78514;SHT31;67814;51.976;5.810;2023-09-30T15:30:00;21.6;54.1
78514;SHT31;67814;51.976;5.810;2023-09-30T15:32:29;21.6;53.9
78514;SHT31;67814;51.976;5.810;2023-09-30T15:34:59;21.6;54.3
78514;SHT31;67814;51.976;5.810;2023-09-30T15:37:28;21.6;54.0
78514;SHT31;67814;51.976;5.810;2023-09-30T15:39:59;21.6;53.3
78514;SHT31;67814;51.976;5.810;2023-09-30T15:42:27;21.6;54.5
78514;SHT31;67814;51.976;5.810;2023-09-30T15:44:56;21.6;53.3
78514;SHT31;67814;51.976;5.810;2023-09-30T15:47:24;21.6;53.5
78514;SHT31;67814;51.976;5.810;2023-09-30T15:49:53;21.6;53.7
78514;SHT31;67814;51.976;5.810;2023-09-30T15:52:22;21.6;53.6
78514;SHT31;67814;51.976;5.810;2023-09-30T15:54:50;21.5;54.1
78514;SHT31;67814;51.976;5.810;2023-09-30T15:57:18;21.5;54.3
78514;SHT31;67814;51.976;5.810;2023-09-30T15:59:47;21.5;54.3
78514;SHT31;67814;51.976;5.810;2023-09-30T16:02:16;21.4;54.3
78514;SHT31;67814;51.976;5.810;2023-09-30T16:04:44;21.4;55.1
78514;SHT31;67814;51.976;5.810;2023-09-30T16:07:13;21.3;55.8
78514;SHT31;67814;51.976;5.810;2023-09-30T16:09:41;21.3;57.4
78514;SHT31;67814;51.976;5.810;2023-09-30T16:12:10;21.2;57.9
78514;SHT31;67814;51.976;5.810;2023-09-30T16:14:41;21.2;57.6
78514;SHT31;67814;51.976;5.810;2023-09-30T16:17:10;21.1;58.2
78514;SHT31;67814;51.976;5.810;2023-09-30T16:19:39;21.1;58.2
78514;SHT31;67814;51.976;5.810;2023-09-30T16:22:07;21.1;59.0
78514;SHT31;67814;51.976;5.810;2023-09-30T16:24:36;21.0;59.7
78514;SHT31;67814;51.976;5.810;2023-09-30T16:27:05;21.0;59.4